CheckWX is a tool to help pilots better visualize weather data.  It is not intended as a substitute for an official pre-flight weather briefing.

18:04:56 UTC

LTBG TAF
Bandırma Airport
Turkey
TAF LTBG 241640Z 2418/2503 01008KT CAVOK

Apr-24@
18:00 UTC

Apr-24 @ 18:00 UTC

Apr-25@
03:00 UTC

Apr-25 @ 03:00 UTC

TAF LTBG 241640Z 2418/2503 01008KT CAVOK
Wind
  • 010° at 8 KTS
Conditions
No significant weather
Cloud Levels
  • No significant clouds